Time;durP1;ratioP1;P1;durP2;ratioP2;P2;SDS_P1;SDS_P2;PMS_P1;PMS_P2;Temp;Humidity;BMP_temperature;BMP_pressure;BME280_temperature;BME280_humidity;BME280_pressure;Samples;Min_cycle;Max_cycle;Signal;HPM_P1;HPM_P2
2021/04/29 00:02:21;;;;;;;13.50;9.85;;;9.70;99.90;;;;;;5074465;28;20111;-71
2021/04/29 00:04:47;;;;;;;13.55;9.48;;;9.60;99.90;;;;;;5073844;28;20131;-71
2021/04/29 00:07:12;;;;;;;13.95;9.88;;;9.60;99.90;;;;;;5074763;28;20064;-71
2021/04/29 00:09:40;;;;;;;14.15;9.77;;;9.60;99.90;;;;;;5074956;28;20020;-73
2021/04/29 00:12:07;;;;;;;16.92;9.98;;;9.60;99.90;;;;;;5074092;28;20040;-72
2021/04/29 00:14:33;;;;;;;16.15;9.70;;;9.60;99.90;;;;;;5074641;28;20313;-71
2021/04/29 00:16:58;;;;;;;15.52;9.55;;;9.60;99.90;;;;;;5074762;28;20017;-71
2021/04/29 00:19:24;;;;;;;12.43;9.38;;;9.60;99.90;;;;;;5073355;28;20035;-72
2021/04/29 00:21:50;;;;;;;16.48;10.63;;;9.60;99.90;;;;;;5074587;28;20103;-72
2021/04/29 00:24:15;;;;;;;14.18;10.45;;;9.60;99.90;;;;;;5074165;28;20024;-72
2021/04/29 00:26:41;;;;;;;13.40;9.88;;;9.60;99.90;;;;;;5072463;28;20036;-72
2021/04/29 00:29:06;;;;;;;14.70;10.35;;;9.60;99.90;;;;;;5074479;28;20071;-72
2021/04/29 00:31:32;;;;;;;15.05;11.48;;;9.60;99.90;;;;;;5073124;28;20073;-72
2021/04/29 00:33:58;;;;;;;14.07;11.18;;;9.60;99.90;;;;;;5073864;28;20013;-72
2021/04/29 00:36:24;;;;;;;12.35;9.77;;;9.60;99.90;;;;;;5073519;28;20140;-72
2021/04/29 00:38:50;;;;;;;13.48;9.23;;;9.50;99.90;;;;;;5073493;28;20051;-71
2021/04/29 00:41:15;;;;;;;12.25;9.75;;;9.50;99.90;;;;;;5073627;28;20456;-74
2021/04/29 00:43:41;;;;;;;16.88;10.45;;;9.50;99.90;;;;;;5073580;28;20019;-71
2021/04/29 00:46:12;;;;;;;12.95;10.45;;;9.40;99.90;;;;;;5073035;28;20043;-71
2021/04/29 00:48:39;;;;;;;11.82;10.60;;;9.40;99.90;;;;;;5073764;28;20046;-71
2021/04/29 00:51:05;;;;;;;13.07;9.93;;;9.40;99.90;;;;;;5073805;28;20052;-72
2021/04/29 00:53:39;;;;;;;12.52;10.20;;;9.40;99.90;;;;;;5072544;28;20017;-72
2021/04/29 00:56:05;;;;;;;15.23;10.77;;;9.40;99.90;;;;;;5073636;28;20067;-72
2021/04/29 00:58:31;;;;;;;13.50;10.68;;;9.40;99.90;;;;;;5073141;28;20024;-72
2021/04/29 01:00:57;;;;;;;17.05;11.00;;;9.40;99.90;;;;;;5073047;28;20085;-72
2021/04/29 01:03:36;;;;;;;15.30;11.07;;;9.30;99.90;;;;;;5073318;28;20020;-72
2021/04/29 01:06:08;;;;;;;20.13;12.10;;;9.30;99.90;;;;;;5073375;28;20074;-72
2021/04/29 01:08:53;;;;;;;14.98;10.55;;;9.30;99.90;;;;;;5072199;28;20020;-72
2021/04/29 01:11:22;;;;;;;25.02;11.88;;;9.30;99.90;;;;;;5074683;28;20362;-73
2021/04/29 01:13:51;;;;;;;24.13;11.13;;;9.30;99.90;;;;;;5072909;28;20452;-73
2021/04/29 01:16:18;;;;;;;15.32;10.68;;;9.30;99.90;;;;;;5073032;28;20099;-72
2021/04/29 01:18:45;;;;;;;14.63;10.82;;;9.20;99.90;;;;;;5073190;28;20029;-73
2021/04/29 01:21:14;;;;;;;15.70;11.15;;;9.20;99.90;;;;;;5072174;28;20032;-72
2021/04/29 01:23:57;;;;;;;14.38;11.50;;;9.30;99.90;;;;;;5073273;28;20025;-72
2021/04/29 01:26:32;;;;;;;21.70;11.20;;;9.20;99.90;;;;;;5072558;28;20024;-72
2021/04/29 01:29:01;;;;;;;21.42;11.10;;;9.20;99.90;;;;;;5072543;28;20591;-72
2021/04/29 01:31:33;;;;;;;15.07;10.57;;;9.20;99.90;;;;;;5072352;28;20048;-73
2021/04/29 01:34:00;;;;;;;13.40;10.30;;;9.10;99.90;;;;;;5073033;28;20035;-72
2021/04/29 01:36:28;;;;;;;15.13;10.02;;;9.10;99.90;;;;;;5071561;28;20381;-73
2021/04/29 01:38:55;;;;;;;16.55;10.70;;;9.10;99.90;;;;;;5072934;28;20032;-73
2021/04/29 01:41:22;;;;;;;19.25;10.52;;;9.10;99.90;;;;;;5072427;28;20074;-73
2021/04/29 01:43:48;;;;;;;11.98;10.45;;;9.90;99.90;;;;;;5072351;28;20028;-73
2021/04/29 01:46:14;;;;;;;14.93;10.90;;;9.10;99.90;;;;;;5072803;28;20036;-73
2021/04/29 01:48:40;;;;;;;12.93;10.45;;;9.20;99.90;;;;;;5072700;28;20066;-73
2021/04/29 01:51:06;;;;;;;15.05;10.85;;;9.10;99.90;;;;;;5072034;28;20020;-73
2021/04/29 01:53:32;;;;;;;12.50;11.02;;;9.20;99.90;;;;;;5073034;28;20548;-73
2021/04/29 01:55:58;;;;;;;14.48;11.02;;;9.10;99.90;;;;;;5072219;28;20045;-73
2021/04/29 01:58:24;;;;;;;19.42;12.10;;;9.20;99.90;;;;;;5074441;28;20033;-73
2021/04/29 02:00:50;;;;;;;18.02;11.80;;;9.20;99.90;;;;;;5074913;28;20033;-73
2021/04/29 02:03:16;;;;;;;16.38;12.68;;;9.10;99.90;;;;;;5071438;28;20075;-73
2021/04/29 02:05:42;;;;;;;17.40;12.65;;;9.10;99.90;;;;;;5072295;28;20068;-73
2021/04/29 02:08:08;;;;;;;18.77;12.65;;;9.20;99.90;;;;;;5072096;28;20464;-73
2021/04/29 02:10:34;;;;;;;17.80;11.90;;;9.20;99.90;;;;;;5071221;28;20028;-73
2021/04/29 02:13:00;;;;;;;25.15;12.45;;;9.10;99.90;;;;;;5072299;28;20426;-73
2021/04/29 02:15:59;;;;;;;13.77;12.35;;;9.10;99.90;;;;;;5070307;28;20021;-73
2021/04/29 02:18:27;;;;;;;16.30;12.20;;;9.00;99.90;;;;;;5037333;28;20037;-73
2021/04/29 02:20:56;;;;;;;16.27;11.90;;;9.00;99.90;;;;;;5072131;28;20036;-73
2021/04/29 02:23:24;;;;;;;16.95;13.38;;;8.90;99.90;;;;;;5071983;28;20166;-74
2021/04/29 02:25:52;;;;;;;19.88;14.25;;;8.80;99.90;;;;;;5071544;28;20029;-72
2021/04/29 02:28:18;;;;;;;23.15;13.57;;;8.80;99.90;;;;;;5071948;28;20020;-72
2021/04/29 02:30:46;;;;;;;19.88;13.57;;;8.80;99.90;;;;;;5071778;28;20091;-73
2021/04/29 02:33:12;;;;;;;17.73;13.18;;;8.70;99.90;;;;;;5071524;28;20108;-73
2021/04/29 02:35:37;;;;;;;18.05;14.05;;;8.60;99.90;;;;;;5071721;28;20198;-72
2021/04/29 02:38:04;;;;;;;17.38;12.77;;;8.60;99.90;;;;;;5071605;28;20017;-72
2021/04/29 02:40:30;;;;;;;19.52;13.43;;;8.60;99.90;;;;;;5071537;28;20111;-71
2021/04/29 02:42:56;;;;;;;20.00;14.15;;;8.60;99.90;;;;;;5072091;28;20033;-71
2021/04/29 02:45:23;;;;;;;25.40;13.15;;;8.50;99.90;;;;;;5070656;28;20881;-71
2021/04/29 02:47:51;;;;;;;23.30;14.43;;;8.60;99.90;;;;;;5071796;28;20104;-73
2021/04/29 02:50:22;;;;;;;25.77;13.60;;;8.60;99.90;;;;;;5071138;28;20052;-72
2021/04/29 02:52:51;;;;;;;22.33;13.77;;;8.60;99.90;;;;;;5070849;28;20037;-72
2021/04/29 02:55:18;;;;;;;23.83;15.10;;;8.60;99.90;;;;;;5071762;28;20025;-71
2021/04/29 02:57:46;;;;;;;20.17;13.68;;;8.60;99.90;;;;;;5071813;28;20025;-71
2021/04/29 03:00:15;;;;;;;19.05;13.23;;;8.60;99.90;;;;;;5072320;28;20037;-72
2021/04/29 03:02:41;;;;;;;24.60;15.00;;;8.50;99.90;;;;;;5072405;28;20112;-72
2021/04/29 03:05:13;;;;;;;21.77;14.48;;;8.50;99.90;;;;;;5071402;28;20029;-72
2021/04/29 03:07:40;;;;;;;24.25;16.00;;;8.50;99.90;;;;;;5071255;28;20052;-72
2021/04/29 03:10:07;;;;;;;31.73;15.48;;;8.50;99.90;;;;;;5071787;28;20021;-72
2021/04/29 03:12:33;;;;;;;25.35;16.15;;;8.40;99.90;;;;;;5071271;28;20031;-72
2021/04/29 03:14:58;;;;;;;27.90;16.10;;;8.50;99.90;;;;;;5071124;28;20028;-72
2021/04/29 03:17:24;;;;;;;27.38;14.60;;;8.30;99.90;;;;;;5071248;28;20408;-73
2021/04/29 03:19:50;;;;;;;31.77;16.05;;;8.40;99.90;;;;;;5071307;28;20491;-73
2021/04/29 03:22:16;;;;;;;25.38;15.98;;;8.20;99.90;;;;;;5070629;28;20358;-73
2021/04/29 03:24:41;;;;;;;32.80;16.90;;;8.10;99.90;;;;;;5071643;28;20071;-72
2021/04/29 03:27:07;;;;;;;31.25;15.88;;;8.10;99.90;;;;;;5071215;28;20451;-74
2021/04/29 03:29:33;;;;;;;20.77;14.85;;;8.00;99.90;;;;;;5070597;28;20395;-73
2021/04/29 03:31:58;;;;;;;28.70;14.55;;;8.00;99.90;;;;;;5071277;28;20044;-73
2021/04/29 03:34:24;;;;;;;26.15;13.65;;;8.00;99.90;;;;;;5070196;28;20020;-73
2021/04/29 03:36:50;;;;;;;34.15;15.40;;;7.90;99.90;;;;;;5070941;28;20045;-74
2021/04/29 03:39:15;;;;;;;22.90;13.77;;;8.00;99.90;;;;;;5071255;28;20028;-73
2021/04/29 03:41:41;;;;;;;28.20;15.23;;;8.00;99.90;;;;;;5070671;28;20302;-73
2021/04/29 03:44:09;;;;;;;19.35;13.90;;;7.90;99.90;;;;;;5071205;28;20028;-73
2021/04/29 03:46:34;;;;;;;28.25;14.95;;;8.00;99.90;;;;;;5071067;28;20059;-73
2021/04/29 03:49:00;;;;;;;30.50;15.15;;;8.00;99.90;;;;;;5070419;28;20544;-73
2021/04/29 03:51:25;;;;;;;26.08;14.63;;;8.00;99.90;;;;;;5070751;28;20051;-73
2021/04/29 03:53:51;;;;;;;25.38;15.88;;;7.90;99.90;;;;;;5071361;28;20036;-72
2021/04/29 03:56:16;;;;;;;26.33;15.13;;;7.90;99.90;;;;;;5070407;28;20114;-71
2021/04/29 03:58:42;;;;;;;28.27;15.07;;;7.90;99.90;;;;;;5071310;28;20025;-74
2021/04/29 04:01:08;;;;;;;23.17;15.05;;;7.90;99.90;;;;;;5071636;28;20059;-72
2021/04/29 04:03:36;;;;;;;29.83;15.93;;;7.90;99.90;;;;;;5073645;28;20158;-74
2021/04/29 04:06:02;;;;;;;21.35;14.68;;;7.90;99.90;;;;;;5074305;28;20540;-73
2021/04/29 04:08:27;;;;;;;29.85;16.52;;;7.90;99.90;;;;;;5074313;28;20121;-74
2021/04/29 04:10:53;;;;;;;32.97;15.75;;;7.90;99.90;;;;;;5073887;28;20020;-74
2021/04/29 04:13:20;;;;;;;24.95;14.70;;;8.00;99.90;;;;;;5074020;28;20031;-73
2021/04/29 04:15:46;;;;;;;27.60;15.93;;;8.00;99.90;;;;;;5074462;28;20094;-72
2021/04/29 04:18:12;;;;;;;29.65;15.65;;;7.90;99.90;;;;;;5073183;28;20047;-72
2021/04/29 04:20:39;;;;;;;26.02;15.40;;;8.00;99.90;;;;;;5074431;28;20392;-74
2021/04/29 04:23:05;;;;;;;26.98;17.33;;;7.90;99.90;;;;;;5074402;28;20032;-74
2021/04/29 04:25:30;;;;;;;33.08;16.23;;;7.90;99.90;;;;;;5073192;28;20033;-74
2021/04/29 04:27:56;;;;;;;28.75;15.40;;;7.90;99.90;;;;;;5074107;28;20099;-73
2021/04/29 04:30:22;;;;;;;34.25;16.90;;;8.00;99.90;;;;;;5073613;28;20111;-74
2021/04/29 04:32:47;;;;;;;25.95;15.38;;;7.90;99.90;;;;;;5073231;28;20029;-74
2021/04/29 04:35:13;;;;;;;40.75;16.13;;;7.90;99.90;;;;;;5073584;28;20049;-74
2021/04/29 04:37:39;;;;;;;36.42;18.08;;;7.90;99.90;;;;;;5073631;28;20065;-74
2021/04/29 04:40:06;;;;;;;25.30;17.70;;;7.90;99.90;;;;;;5073922;28;20032;-74
2021/04/29 04:42:31;;;;;;;24.55;14.10;;;7.90;99.90;;;;;;5074987;28;20028;-72
2021/04/29 04:44:57;;;;;;;30.02;17.00;;;7.90;99.90;;;;;;5077581;28;20028;-74
2021/04/29 04:47:23;;;;;;;33.90;17.33;;;7.90;99.90;;;;;;5077924;28;20047;-73
2021/04/29 04:49:48;;;;;;;23.38;14.77;;;7.90;99.90;;;;;;5074588;28;20024;-73
2021/04/29 04:52:13;;;;;;;31.83;16.73;;;7.90;99.90;;;;;;5072773;28;20031;-71
2021/04/29 04:54:39;;;;;;;31.85;17.48;;;7.90;99.90;;;;;;5073970;28;20021;-73
2021/04/29 04:57:05;;;;;;;34.65;17.13;;;7.90;99.90;;;;;;5073821;28;20039;-72
2021/04/29 04:59:33;;;;;;;29.10;17.38;;;7.90;99.90;;;;;;5072561;28;20017;-72
2021/04/29 05:02:01;;;;;;;18.83;13.35;;;7.90;99.90;;;;;;5073626;28;20024;-72
2021/04/29 05:04:28;;;;;;;33.22;16.75;;;8.00;99.90;;;;;;5073166;28;20028;-72
2021/04/29 05:06:56;;;;;;;28.85;17.15;;;7.90;99.90;;;;;;5072749;28;20064;-72
2021/04/29 05:09:22;;;;;;;29.95;15.98;;;8.00;99.90;;;;;;5073625;28;20027;-72
2021/04/29 05:11:48;;;;;;;25.67;15.98;;;8.00;99.90;;;;;;5073397;28;20033;-72
2021/04/29 05:14:13;;;;;;;25.17;16.33;;;8.00;99.90;;;;;;5073201;28;20426;-74
2021/04/29 05:16:40;;;;;;;26.88;16.98;;;8.00;99.90;;;;;;5074240;28;20028;-73
2021/04/29 05:19:06;;;;;;;28.05;15.25;;;8.00;99.90;;;;;;5073518;28;20016;-72
2021/04/29 05:21:32;;;;;;;33.28;16.92;;;8.00;99.90;;;;;;5072307;28;20365;-73
2021/04/29 05:23:57;;;;;;;24.42;15.07;;;7.90;99.90;;;;;;5073244;28;20017;-72
2021/04/29 05:26:23;;;;;;;24.27;14.80;;;8.00;99.90;;;;;;5072781;28;20033;-72
2021/04/29 05:28:48;;;;;;;26.38;14.25;;;8.00;99.90;;;;;;5072581;28;20017;-72
2021/04/29 05:31:14;;;;;;;21.58;15.35;;;8.00;99.90;;;;;;5072816;28;20031;-74
2021/04/29 05:33:39;;;;;;;25.20;15.60;;;8.00;99.90;;;;;;5073055;28;20032;-74
2021/04/29 05:36:05;;;;;;;23.73;15.90;;;8.10;99.90;;;;;;5072146;28;20044;-73
2021/04/29 05:38:31;;;;;;;28.40;16.05;;;8.10;99.90;;;;;;5072444;28;20035;-72
2021/04/29 05:40:56;;;;;;;26.33;14.98;;;8.10;99.90;;;;;;5072147;28;20027;-72
2021/04/29 05:43:22;;;;;;;27.00;15.13;;;8.10;99.90;;;;;;5072425;28;20023;-72
2021/04/29 05:45:47;;;;;;;24.08;13.75;;;8.10;99.90;;;;;;5072444;28;20122;-73
2021/04/29 05:48:13;;;;;;;27.38;14.60;;;8.10;99.90;;;;;;5071919;28;20066;-74
2021/04/29 05:50:39;;;;;;;18.23;13.90;;;8.20;99.90;;;;;;5072782;28;20499;-73
2021/04/29 05:53:04;;;;;;;24.23;14.85;;;8.20;99.90;;;;;;5072687;28;20020;-72
2021/04/29 05:55:30;;;;;;;21.98;13.43;;;8.30;99.90;;;;;;5071605;28;20032;-74
2021/04/29 05:57:59;;;;;;;23.38;12.88;;;8.30;99.90;;;;;;5072525;28;20030;-71
2021/04/29 06:00:25;;;;;;;19.70;13.15;;;8.30;99.90;;;;;;5072564;28;20115;-73
2021/04/29 06:02:51;;;;;;;21.67;12.65;;;8.30;99.90;;;;;;5071755;28;20104;-74
2021/04/29 06:05:19;;;;;;;23.63;14.32;;;8.30;99.90;;;;;;5072051;28;20119;-74
2021/04/29 06:07:45;;;;;;;23.67;13.82;;;8.40;99.90;;;;;;5072697;28;20090;-74
2021/04/29 06:10:11;;;;;;;24.88;13.85;;;8.50;99.90;;;;;;5071357;28;20473;-75
2021/04/29 06:12:36;;;;;;;27.33;13.57;;;8.40;99.90;;;;;;5072144;28;20476;-73
2021/04/29 06:15:02;;;;;;;26.55;14.48;;;8.50;99.90;;;;;;5072325;28;20076;-74
2021/04/29 06:17:28;;;;;;;22.45;13.07;;;8.50;99.90;;;;;;5071468;28;20111;-73
2021/04/29 06:19:53;;;;;;;25.45;14.85;;;8.50;99.90;;;;;;5072122;28;20021;-73
2021/04/29 06:22:19;;;;;;;23.75;14.77;;;8.50;99.90;;;;;;5072113;28;20024;-73
2021/04/29 06:24:44;;;;;;;25.80;14.63;;;8.50;99.90;;;;;;5070926;28;20233;-73
2021/04/29 06:27:10;;;;;;;32.80;14.32;;;8.60;99.90;;;;;;5071725;28;20033;-73
2021/04/29 06:29:36;;;;;;;27.15;14.57;;;8.60;99.90;;;;;;5071738;28;20182;-74
2021/04/29 06:32:05;;;;;;;21.30;13.82;;;8.50;99.90;;;;;;5072764;28;20028;-74
2021/04/29 06:34:31;;;;;;;25.80;14.13;;;8.50;99.90;;;;;;5072350;28;20024;-73
2021/04/29 06:36:56;;;;;;;33.05;15.13;;;8.50;99.90;;;;;;5072678;28;20040;-73
2021/04/29 06:39:22;;;;;;;23.17;13.65;;;8.50;99.90;;;;;;5071164;28;20025;-73
2021/04/29 06:41:48;;;;;;;23.60;13.45;;;8.50;99.90;;;;;;5072163;28;20032;-75
2021/04/29 06:44:14;;;;;;;24.88;13.45;;;8.40;99.90;;;;;;5072065;28;20034;-73
2021/04/29 06:46:40;;;;;;;18.52;12.52;;;8.30;99.90;;;;;;5072154;28;20078;-73
2021/04/29 06:49:06;;;;;;;18.30;13.43;;;8.30;99.90;;;;;;5072538;28;20462;-74
2021/04/29 06:51:32;;;;;;;24.30;14.15;;;8.30;99.90;;;;;;5071874;28;20476;-74
2021/04/29 06:53:58;;;;;;;28.83;14.63;;;8.20;99.90;;;;;;5073360;28;20028;-74
2021/04/29 06:56:24;;;;;;;20.92;12.93;;;8.20;99.90;;;;;;5073488;28;20054;-74
2021/04/29 06:58:50;;;;;;;20.75;13.98;;;8.20;99.90;;;;;;5073271;28;20207;-74
2021/04/29 07:01:16;;;;;;;27.17;14.15;;;8.10;99.90;;;;;;5072368;28;20029;-74
2021/04/29 07:03:41;;;;;;;27.30;14.57;;;8.20;99.90;;;;;;5072312;28;20051;-73
2021/04/29 07:06:07;;;;;;;19.58;15.02;;;8.10;99.90;;;;;;5071646;28;20186;-74
2021/04/29 07:08:33;;;;;;;20.50;14.80;;;8.10;99.90;;;;;;5070622;28;20483;-74
2021/04/29 07:10:58;;;;;;;18.95;13.55;;;8.10;99.90;;;;;;5073080;28;20032;-74
2021/04/29 07:13:24;;;;;;;20.77;13.50;;;8.10;99.90;;;;;;5071670;28;20013;-74
2021/04/29 07:15:49;;;;;;;24.35;15.10;;;8.20;99.90;;;;;;5071961;28;20406;-74
2021/04/29 07:18:15;;;;;;;20.70;13.13;;;8.10;99.90;;;;;;5071463;28;20066;-74
2021/04/29 07:20:42;;;;;;;19.67;13.48;;;8.10;99.90;;;;;;5071108;28;20017;-73
2021/04/29 07:23:08;;;;;;;21.45;13.90;;;8.10;99.90;;;;;;5070963;28;20112;-74
2021/04/29 07:25:34;;;;;;;21.25;14.13;;;8.00;99.90;;;;;;5070585;28;20028;-74
2021/04/29 07:28:00;;;;;;;23.60;13.50;;;8.00;99.90;;;;;;5071143;28;20027;-74
2021/04/29 07:30:26;;;;;;;22.58;13.00;;;8.00;99.90;;;;;;5071385;28;20024;-74
2021/04/29 07:32:52;;;;;;;19.00;12.07;;;8.00;99.90;;;;;;5071788;28;20025;-74
2021/04/29 07:35:20;;;;;;;17.60;12.65;;;8.00;99.90;;;;;;5071538;28;20091;-74
2021/04/29 07:37:46;;;;;;;25.15;14.02;;;7.90;99.90;;;;;;5075557;28;20453;-75
2021/04/29 07:40:12;;;;;;;19.08;12.98;;;8.00;99.90;;;;;;5075354;28;20028;-74
2021/04/29 07:42:38;;;;;;;19.63;13.48;;;7.90;99.90;;;;;;5074821;28;20024;-74
2021/04/29 07:45:04;;;;;;;18.00;12.40;;;7.90;99.90;;;;;;5075463;28;20024;-74
2021/04/29 07:47:29;;;;;;;16.50;12.07;;;7.90;99.90;;;;;;5074564;28;20380;-74
2021/04/29 07:49:55;;;;;;;20.77;11.93;;;7.90;99.90;;;;;;5075027;28;20017;-74
2021/04/29 07:52:20;;;;;;;18.45;12.18;;;7.90;99.90;;;;;;5074821;28;20078;-73
2021/04/29 07:54:46;;;;;;;20.73;12.98;;;7.90;99.90;;;;;;5074412;28;20457;-74
2021/04/29 07:57:11;;;;;;;16.35;13.20;;;7.90;99.90;;;;;;5075816;28;20538;-74
2021/04/29 07:59:37;;;;;;;18.80;12.68;;;7.80;99.90;;;;;;5075498;28;20537;-74
2021/04/29 08:02:02;;;;;;;17.13;12.68;;;7.80;99.90;;;;;;5074915;28;20023;-75
2021/04/29 08:04:29;;;;;;;21.67;13.35;;;7.80;99.90;;;;;;5075460;28;20047;-74
2021/04/29 08:06:56;;;;;;;20.48;13.80;;;7.90;99.90;;;;;;5074690;28;20040;-74
2021/04/29 08:09:22;;;;;;;18.77;11.75;;;7.90;99.90;;;;;;5073893;28;20024;-74
2021/04/29 08:11:47;;;;;;;17.00;12.82;;;7.90;99.90;;;;;;5074680;28;20430;-74
2021/04/29 08:14:13;;;;;;;22.77;13.98;;;8.00;99.90;;;;;;5074563;28;20027;-74
2021/04/29 08:16:38;;;;;;;18.33;13.93;;;8.00;99.90;;;;;;5073791;28;20473;-75
2021/04/29 08:19:04;;;;;;;14.93;11.85;;;8.10;99.90;;;;;;5074690;28;20040;-74
2021/04/29 08:21:30;;;;;;;18.08;12.70;;;8.10;99.90;;;;;;5074443;28;20025;-74
2021/04/29 08:23:57;;;;;;;15.82;13.23;;;8.10;99.90;;;;;;5073763;28;20020;-74
2021/04/29 08:26:23;;;;;;;20.67;14.20;;;8.10;99.90;;;;;;5074330;28;20384;-74
2021/04/29 08:28:49;;;;;;;20.25;14.07;;;8.20;99.90;;;;;;5074739;28;20384;-74
2021/04/29 08:31:15;;;;;;;18.25;12.82;;;8.10;99.90;;;;;;5073502;28;20027;-74
2021/04/29 08:33:40;;;;;;;18.65;13.68;;;8.00;99.90;;;;;;5074019;28;20025;-74
2021/04/29 08:36:08;;;;;;;18.27;13.18;;;8.00;99.90;;;;;;5074347;28;20131;-74
2021/04/29 08:38:34;;;;;;;23.70;14.05;;;8.00;99.90;;;;;;5072957;28;20078;-74
2021/04/29 08:40:59;;;;;;;24.10;13.15;;;8.00;99.90;;;;;;5074438;28;20020;-72
2021/04/29 08:43:25;;;;;;;21.70;14.73;;;8.00;99.90;;;;;;5073854;28;20021;-74
2021/04/29 08:45:50;;;;;;;19.65;12.38;;;8.00;99.90;;;;;;5073349;28;20021;-73
2021/04/29 08:48:23;;;;;;;17.83;12.88;;;8.00;99.90;;;;;;5073500;28;20107;-73
2021/04/29 08:50:48;;;;;;;22.17;13.38;;;7.90;99.90;;;;;;5073587;28;20020;-74
2021/04/29 08:53:14;;;;;;;15.38;11.57;;;7.80;99.90;;;;;;5073539;28;20055;-73
2021/04/29 08:55:41;;;;;;;20.58;12.85;;;7.80;99.90;;;;;;5074700;28;20032;-73
2021/04/29 08:58:08;;;;;;;22.85;13.10;;;7.80;99.90;;;;;;5073441;28;20028;-74
2021/04/29 09:00:36;;;;;;;21.13;12.82;;;7.70;99.90;;;;;;5073735;28;20021;-74
2021/04/29 09:03:04;;;;;;;20.33;13.32;;;7.70;99.90;;;;;;5074200;28;20025;-73
2021/04/29 09:05:32;;;;;;;17.23;13.43;;;7.80;99.90;;;;;;5072838;28;20393;-73
2021/04/29 09:08:04;;;;;;;16.67;12.43;;;7.90;99.90;;;;;;5074582;28;20045;-73
2021/04/29 09:10:35;;;;;;;22.33;13.32;;;7.90;99.90;;;;;;5073684;28;20025;-74
2021/04/29 09:13:14;;;;;;;19.10;13.50;;;7.90;99.90;;;;;;5073142;28;20070;-74
2021/04/29 09:15:40;;;;;;;18.95;12.07;;;7.90;99.90;;;;;;5073783;28;20025;-73
2021/04/29 09:18:16;;;;;;;27.50;13.93;;;7.90;99.90;;;;;;5073567;28;20021;-73
2021/04/29 09:21:00;;;;;;;15.88;12.02;;;7.90;99.90;;;;;;5060442;28;20036;-74
2021/04/29 09:23:31;;;;;;;17.23;12.32;;;7.90;99.90;;;;;;5073094;28;20033;-74
2021/04/29 09:26:10;;;;;;;19.15;12.98;;;7.90;99.90;;;;;;5073258;28;20043;-73
2021/04/29 09:28:40;;;;;;;17.92;13.50;;;7.90;99.90;;;;;;5073107;28;20025;-74
2021/04/29 09:31:17;;;;;;;17.42;13.40;;;7.80;99.90;;;;;;5073553;28;20028;-73
2021/04/29 09:33:46;;;;;;;20.25;12.35;;;7.70;99.90;;;;;;5073093;28;20027;-73
2021/04/29 09:36:29;;;;;;;21.30;12.57;;;7.70;99.90;;;;;;5073125;28;20067;-74
2021/04/29 09:39:09;;;;;;;18.30;12.48;;;7.70;99.90;;;;;;5073264;28;20059;-74
2021/04/29 09:41:49;;;;;;;16.98;13.25;;;7.70;99.90;;;;;;5072575;28;20060;-74
2021/04/29 09:44:23;;;;;;;17.50;13.23;;;7.50;99.90;;;;;;5073099;28;20062;-75
2021/04/29 09:47:00;;;;;;;18.10;11.23;;;7.50;99.90;;;;;;5073244;28;20036;-74
2021/04/29 09:49:32;;;;;;;19.17;12.25;;;7.50;99.90;;;;;;5072165;28;20579;-75
2021/04/29 09:51:59;;;;;;;19.58;12.63;;;7.40;99.90;;;;;;5072981;28;20043;-74
2021/04/29 09:54:30;;;;;;;16.95;12.40;;;7.40;99.90;;;;;;5071809;28;20028;-74
2021/04/29 09:56:59;;;;;;;15.02;12.38;;;7.40;99.90;;;;;;5073067;28;20098;-73
2021/04/29 09:59:25;;;;;;;17.13;11.70;;;7.40;99.90;;;;;;5071351;28;20373;-74
2021/04/29 10:01:53;;;;;;;18.45;12.00;;;7.30;99.90;;;;;;5072424;28;20024;-74
2021/04/29 10:04:18;;;;;;;15.07;12.57;;;7.30;99.90;;;;;;5073197;28;20023;-74
2021/04/29 10:06:46;;;;;;;20.27;14.13;;;7.20;99.90;;;;;;5072929;28;20468;-73
2021/04/29 10:09:13;;;;;;;19.35;12.57;;;7.20;99.90;;;;;;5071953;28;20024;-73
2021/04/29 10:11:40;;;;;;;15.50;12.48;;;7.20;99.90;;;;;;5072734;28;20032;-74
2021/04/29 10:14:08;;;;;;;17.25;11.82;;;7.20;99.90;;;;;;5065585;28;20016;-74
2021/04/29 10:16:34;;;;;;;19.88;13.07;;;7.20;99.90;;;;;;5071624;28;20523;-75
2021/04/29 10:18:59;;;;;;;22.10;13.23;;;7.30;99.90;;;;;;5071874;28;20108;-74
2021/04/29 10:21:29;;;;;;;16.02;11.82;;;7.20;99.90;;;;;;5072147;28;20119;-74
2021/04/29 10:23:54;;;;;;;17.38;11.82;;;7.20;99.90;;;;;;5071807;28;20392;-75
2021/04/29 10:26:28;;;;;;;15.20;11.90;;;7.20;99.90;;;;;;5071954;28;20032;-73
2021/04/29 10:28:59;;;;;;;17.58;12.82;;;7.20;99.90;;;;;;5072113;28;20039;-74
2021/04/29 10:31:27;;;;;;;16.60;12.07;;;7.20;99.90;;;;;;5071644;28;20029;-73
2021/04/29 10:34:01;;;;;;;16.75;12.43;;;7.20;99.90;;;;;;5072395;28;20020;-74
2021/04/29 10:36:41;;;;;;;20.58;13.18;;;7.20;99.90;;;;;;5071737;28;20514;-73
2021/04/29 10:39:14;;;;;;;18.57;12.80;;;7.20;99.90;;;;;;5073896;28;20024;-74
2021/04/29 10:41:45;;;;;;;20.45;12.07;;;7.20;99.90;;;;;;5072727;28;20439;-73
2021/04/29 10:44:16;;;;;;;14.75;12.90;;;7.10;99.90;;;;;;5073896;28;20491;-74
2021/04/29 10:46:43;;;;;;;23.40;13.75;;;7.10;99.90;;;;;;5072116;28;20040;-74
2021/04/29 10:49:10;;;;;;;22.23;13.07;;;7.20;99.90;;;;;;5071754;28;20465;-74
2021/04/29 10:51:40;;;;;;;19.25;14.02;;;7.20;99.90;;;;;;5071029;28;20056;-73
2021/04/29 10:54:13;;;;;;;;;;;7.30;99.90;;;;;;5072643;28;20407;-72
2021/04/29 10:56:40;;;;;;;28.55;14.57;;;7.30;99.90;;;;;;5072010;28;20352;-73
2021/04/29 10:59:11;;;;;;;23.65;14.60;;;7.40;99.90;;;;;;5071064;28;20379;-73
2021/04/29 11:01:46;;;;;;;20.83;13.57;;;7.40;99.90;;;;;;5071728;28;20029;-73
2021/04/29 11:04:20;;;;;;;27.90;15.40;;;7.50;99.90;;;;;;5071531;28;20072;-73
2021/04/29 11:06:47;;;;;;;23.35;16.08;;;7.50;99.90;;;;;;5071184;28;20040;-73
2021/04/29 11:09:22;;;;;;;21.73;14.82;;;7.60;99.90;;;;;;5071536;28;20784;-72
2021/04/29 11:12:00;;;;;;;24.85;17.35;;;7.70;99.90;;;;;;5074594;28;20090;-73
2021/04/29 11:14:45;;;;;;;28.65;15.85;;;7.70;99.90;;;;;;5075455;28;20381;-73
2021/04/29 11:17:21;;;;;;;19.38;14.68;;;7.80;99.90;;;;;;5075981;28;20082;-72
2021/04/29 11:19:53;;;;;;;24.55;15.25;;;7.70;99.90;;;;;;5075445;28;20116;-73
2021/04/29 11:22:23;;;;;;;22.90;15.73;;;7.70;99.90;;;;;;5062282;28;20047;-72
2021/04/29 11:24:50;;;;;;;20.23;15.43;;;7.60;99.90;;;;;;5075701;28;20024;-73
2021/04/29 11:27:21;;;;;;;22.58;14.88;;;7.50;99.90;;;;;;5074351;28;20286;-73
2021/04/29 11:29:47;;;;;;;23.85;16.13;;;7.50;99.90;;;;;;5075609;28;20020;-72
2021/04/29 11:32:12;;;;;;;26.45;16.02;;;7.50;99.90;;;;;;5075683;28;20487;-73
2021/04/29 11:34:44;;;;;;;25.27;15.38;;;7.50;99.90;;;;;;5074763;28;20025;-72
2021/04/29 11:37:10;;;;;;;26.55;16.27;;;7.50;99.90;;;;;;5075277;28;20495;-73
2021/04/29 11:39:36;;;;;;;25.40;16.48;;;7.50;99.90;;;;;;5075581;28;20465;-73
2021/04/29 11:42:02;;;;;;;23.65;14.82;;;7.50;99.90;;;;;;5075647;28;20410;-73
2021/04/29 11:44:28;;;;;;;24.15;15.07;;;7.50;99.90;;;;;;5075582;28;20112;-73
2021/04/29 11:46:55;;;;;;;19.95;13.77;;;7.40;99.90;;;;;;5074934;28;20392;-72
2021/04/29 11:49:20;;;;;;;25.38;16.02;;;7.40;99.90;;;;;;5075159;28;20350;-73
2021/04/29 11:51:49;;;;;;;29.10;17.27;;;7.30;99.90;;;;;;5075701;28;20052;-72
2021/04/29 11:54:17;;;;;;;26.17;14.77;;;7.20;99.90;;;;;;5074195;28;20017;-72
2021/04/29 11:56:48;;;;;;;21.13;14.70;;;7.20;99.90;;;;;;5075525;28;20107;-73
2021/04/29 11:59:16;;;;;;;22.38;12.18;;;7.10;99.90;;;;;;5074943;28;20017;-72
2021/04/29 12:01:42;;;;;;;18.85;11.55;;;7.10;99.90;;;;;;5074403;28;20033;-72
2021/04/29 12:04:15;;;;;;;15.40;10.73;;;7.10;99.90;;;;;;5074877;28;20031;-73
2021/04/29 12:06:58;;;;;;;15.90;10.65;;;7.10;99.90;;;;;;5075079;28;20078;-73
2021/04/29 12:09:25;;;;;;;14.35;9.27;;;7.10;99.90;;;;;;5074183;28;20107;-73
2021/04/29 12:11:54;;;;;;;20.92;9.95;;;7.00;99.90;;;;;;5074810;28;20102;-73
2021/04/29 12:14:24;;;;;;;22.42;11.18;;;7.00;99.90;;;;;;5074524;28;20518;-72
2021/04/29 12:16:53;;;;;;;23.38;11.02;;;7.00;99.90;;;;;;5073826;28;20481;-73
2021/04/29 12:19:26;;;;;;;19.92;10.57;;;7.00;99.90;;;;;;5074290;28;20032;-73
2021/04/29 12:21:52;;;;;;;22.73;10.85;;;7.00;99.90;;;;;;5072223;28;20473;-74
2021/04/29 12:24:19;;;;;;;23.17;9.57;;;7.10;99.90;;;;;;5073331;28;20032;-73
2021/04/29 12:26:44;;;;;;;18.58;8.40;;;7.20;99.90;;;;;;5073857;28;20037;-74
2021/04/29 12:29:12;;;;;;;18.02;8.25;;;7.20;99.90;;;;;;5073497;28;20314;-74
2021/04/29 12:31:39;;;;;;;19.13;8.25;;;7.30;99.90;;;;;;5073485;28;20039;-74
2021/04/29 12:34:14;;;;;;;18.05;8.10;;;7.30;99.90;;;;;;5073643;28;20491;-73
2021/04/29 12:36:59;;;;;;;17.73;8.25;;;7.40;99.90;;;;;;5072547;28;20400;-73
2021/04/29 12:39:28;;;;;;;12.90;7.43;;;7.50;99.90;;;;;;5073148;28;20464;-74
2021/04/29 12:41:56;;;;;;;12.63;6.65;;;7.60;99.90;;;;;;5074230;28;20102;-74